Time;durP1;ratioP1;P1;durP2;ratioP2;P2;SDS_P1;SDS_P2;PMS_P1;PMS_P2;Temp;Humidity;BMP_temperature;BMP_pressure;BME280_temperature;BME280_humidity;BME280_pressure;Samples;Min_cycle;Max_cycle;Signal;HPM_P1;HPM_P2
2022/09/10 00:02:08;;;;;;;4.45;3.25;;;14.50;99.90;;;;;;4993816;28;20078;-74
2022/09/10 00:04:34;;;;;;;10.27;3.85;;;14.50;99.90;;;;;;4993532;28;20045;-73
2022/09/10 00:06:59;;;;;;;6.60;3.35;;;14.70;99.90;;;;;;4993086;28;20065;-75
2022/09/10 00:09:25;;;;;;;8.32;3.67;;;14.50;99.90;;;;;;4993682;28;20026;-73
2022/09/10 00:11:50;;;;;;;6.10;3.90;;;14.60;99.90;;;;;;4993075;28;20030;-74
2022/09/10 00:14:20;;;;;;;9.50;3.63;;;14.60;99.90;;;;;;4992934;28;20043;-74
2022/09/10 00:16:46;;;;;;;6.95;3.80;;;14.60;99.90;;;;;;4993001;28;20090;-74
2022/09/10 00:19:13;;;;;;;5.07;3.60;;;14.70;99.90;;;;;;4992139;28;20061;-74
2022/09/10 00:21:39;;;;;;;5.10;3.13;;;14.60;99.90;;;;;;4993355;28;20022;-73
2022/09/10 00:24:05;;;;;;;5.18;3.42;;;14.60;99.90;;;;;;4993416;28;20084;-74
2022/09/10 00:26:39;;;;;;;4.72;3.10;;;14.60;99.90;;;;;;4975279;28;20568;-73
2022/09/10 00:29:14;;;;;;;8.30;3.60;;;14.60;99.90;;;;;;4992971;28;20019;-74
2022/09/10 00:31:42;;;;;;;8.00;4.18;;;14.60;99.90;;;;;;4993244;28;20257;-74
2022/09/10 00:34:10;;;;;;;5.10;3.25;;;14.60;99.90;;;;;;4993014;28;20041;-73
2022/09/10 00:36:39;;;;;;;4.97;3.00;;;14.60;99.90;;;;;;4992537;28;20046;-75
2022/09/10 00:39:11;;;;;;;5.50;3.22;;;14.60;99.90;;;;;;4991645;28;20029;-75
2022/09/10 00:41:39;;;;;;;5.10;2.90;;;14.60;99.90;;;;;;4992769;28;20054;-76
2022/09/10 00:44:26;;;;;;;6.93;3.53;;;14.60;99.90;;;;;;4992639;28;20537;-73
2022/09/10 00:46:53;;;;;;;4.03;2.83;;;14.60;99.90;;;;;;4991566;28;20042;-74
2022/09/10 00:49:25;;;;;;;6.78;3.20;;;14.60;99.90;;;;;;4992055;28;20063;-75
2022/09/10 00:51:52;;;;;;;5.32;2.92;;;14.60;99.90;;;;;;4992122;28;20015;-74
2022/09/10 00:54:22;;;;;;;6.15;3.13;;;14.70;99.90;;;;;;4992380;28;20038;-77
2022/09/10 00:56:48;;;;;;;6.40;2.80;;;14.80;99.90;;;;;;4992238;28;20035;-75
2022/09/10 00:59:19;;;;;;;5.70;3.33;;;14.70;99.90;;;;;;4974523;28;20487;-72
2022/09/10 01:01:45;;;;;;;3.85;2.40;;;14.60;99.90;;;;;;4992223;28;20018;-74
2022/09/10 01:04:11;;;;;;;4.57;2.50;;;14.60;99.90;;;;;;4992391;28;20054;-76
2022/09/10 01:06:39;;;;;;;4.88;2.95;;;14.60;99.90;;;;;;4974408;28;20072;-73
2022/09/10 01:09:06;;;;;;;6.68;3.33;;;14.70;99.90;;;;;;4992513;28;20027;-75
2022/09/10 01:11:56;;;;;;;4.72;2.97;;;14.70;99.90;;;;;;4992692;28;20080;-77
2022/09/10 01:14:44;;;;;;;7.22;2.55;;;14.70;99.90;;;;;;4974600;28;20046;-74
2022/09/10 01:17:29;;;;;;;4.25;2.80;;;14.60;99.90;;;;;;4992149;28;20077;-77
2022/09/10 01:20:03;;;;;;;3.65;2.75;;;14.70;99.90;;;;;;4991770;28;20035;-73
2022/09/10 01:22:48;;;;;;;;;;;14.70;99.90;;;;;;4992468;28;20019;-75
2022/09/10 01:25:32;;;;;;;10.18;2.50;;;14.70;99.90;;;;;;4991444;28;19906;-75
2022/09/10 01:28:01;;;;;;;3.72;2.63;;;14.70;99.90;;;;;;4991464;28;20554;-74
2022/09/10 01:30:33;;;;;;;6.85;2.95;;;14.70;99.90;;;;;;4974813;28;20023;-74
2022/09/10 01:33:23;;;;;;;5.75;2.67;;;14.70;99.90;;;;;;4992312;28;20026;-75
2022/09/10 01:35:51;;;;;;;4.50;2.80;;;14.70;99.90;;;;;;4988735;28;20027;-74
2022/09/10 01:38:24;;;;;;;6.47;3.15;;;14.70;99.90;;;;;;4990776;28;20035;-73
2022/09/10 01:40:53;;;;;;;7.45;2.88;;;14.80;99.90;;;;;;4973842;28;20031;-74
2022/09/10 01:43:18;;;;;;;4.18;2.28;;;14.60;99.90;;;;;;4990924;28;20086;-73
2022/09/10 01:45:50;;;;;;;4.15;2.55;;;14.60;99.90;;;;;;4992118;28;20018;-74
2022/09/10 01:49:01;;;;;;;3.25;2.50;;;14.60;99.90;;;;;;4993775;28;20062;-74
2022/09/10 01:51:30;;;;;;;3.47;2.10;;;14.70;99.90;;;;;;4958698;28;20574;-73
2022/09/10 01:54:15;;;;;;;3.40;2.28;;;14.70;99.90;;;;;;4995299;28;20122;-74
2022/09/10 01:56:59;;;;;;;5.05;2.22;;;14.70;99.90;;;;;;4995707;28;20094;-72
2022/09/10 01:59:38;;;;;;;7.22;2.60;;;14.70;99.90;;;;;;4995988;28;20482;-73
2022/09/10 02:02:14;;;;;;;4.38;2.83;;;14.70;99.90;;;;;;4978043;28;20419;-75
2022/09/10 02:04:42;;;;;;;5.95;2.85;;;14.70;99.90;;;;;;4995865;28;20084;-74
2022/09/10 02:07:12;;;;;;;4.97;2.42;;;14.70;99.90;;;;;;4995679;28;20027;-74
2022/09/10 02:09:38;;;;;;;4.05;2.65;;;14.70;99.90;;;;;;4978245;28;20462;-74
2022/09/10 02:12:04;;;;;;;5.10;2.67;;;14.70;99.90;;;;;;4994819;28;20070;-74
2022/09/10 02:14:29;;;;;;;5.63;3.15;;;14.70;99.90;;;;;;4995496;28;20101;-74
2022/09/10 02:16:57;;;;;;;4.35;2.95;;;14.70;99.90;;;;;;4994873;28;20019;-75
2022/09/10 02:19:25;;;;;;;12.30;3.22;;;14.70;99.90;;;;;;4994681;28;20035;-75
2022/09/10 02:21:52;;;;;;;5.13;3.55;;;14.70;99.90;;;;;;4995339;28;20018;-75
2022/09/10 02:24:18;;;;;;;5.80;3.30;;;14.70;99.90;;;;;;4994350;28;20141;-74
2022/09/10 02:26:45;;;;;;;6.65;3.58;;;14.70;99.90;;;;;;4995290;28;20023;-73
2022/09/10 02:29:14;;;;;;;5.75;3.38;;;14.70;99.90;;;;;;4994704;28;20019;-75
2022/09/10 02:31:40;;;;;;;6.82;3.50;;;14.70;99.90;;;;;;4994464;28;20046;-73
2022/09/10 02:34:07;;;;;;;5.57;2.90;;;14.70;99.90;;;;;;4995143;28;20394;-74
2022/09/10 02:36:32;;;;;;;10.52;4.05;;;14.80;99.90;;;;;;4977109;28;20067;-74
2022/09/10 02:38:59;;;;;;;17.30;3.38;;;14.70;99.90;;;;;;4977712;28;20026;-72
2022/09/10 02:41:25;;;;;;;4.05;2.80;;;14.80;99.90;;;;;;4995130;28;20045;-74
2022/09/10 02:43:51;;;;;;;12.70;4.15;;;14.80;99.90;;;;;;4994212;28;20502;-75
2022/09/10 02:46:17;;;;;;;5.03;3.05;;;14.70;99.90;;;;;;4994530;28;20038;-74
2022/09/10 02:48:43;;;;;;;14.48;3.55;;;14.70;99.90;;;;;;4994978;28;20027;-74
2022/09/10 02:51:09;;;;;;;4.57;2.70;;;14.80;99.90;;;;;;4994721;28;20036;-73
2022/09/10 02:53:35;;;;;;;7.43;3.60;;;14.70;99.90;;;;;;4994868;28;20039;-75
2022/09/10 02:56:01;;;;;;;6.03;3.47;;;14.70;99.90;;;;;;4995183;28;20077;-74
2022/09/10 02:58:30;;;;;;;11.13;3.40;;;14.70;99.90;;;;;;4993637;28;20090;-73
2022/09/10 03:01:08;;;;;;;4.25;2.95;;;14.70;99.90;;;;;;4993605;28;20050;-75
2022/09/10 03:03:35;;;;;;;4.57;3.03;;;14.70;99.90;;;;;;4994366;28;20023;-74
2022/09/10 03:06:02;;;;;;;11.95;3.35;;;14.70;99.90;;;;;;4994415;28;20058;-73
2022/09/10 03:08:27;;;;;;;5.75;3.30;;;14.70;99.90;;;;;;4994263;28;20030;-74
2022/09/10 03:10:54;;;;;;;3.92;2.63;;;14.60;99.90;;;;;;4993324;28;20019;-76
2022/09/10 03:13:20;;;;;;;6.53;3.20;;;14.60;99.90;;;;;;4993406;28;20031;-75
2022/09/10 03:15:46;;;;;;;7.47;3.80;;;14.60;99.90;;;;;;4976982;28;20025;-74
2022/09/10 03:18:14;;;;;;;3.90;2.55;;;14.60;99.90;;;;;;4994663;28;20026;-74
2022/09/10 03:20:40;;;;;;;18.23;3.92;;;14.60;99.90;;;;;;4976398;28;20034;-73
2022/09/10 03:23:06;;;;;;;7.40;3.22;;;14.60;99.90;;;;;;4994298;28;20031;-74
2022/09/10 03:25:32;;;;;;;7.75;4.22;;;14.60;99.90;;;;;;4993755;28;20034;-74
2022/09/10 03:27:58;;;;;;;6.28;3.30;;;14.60;99.90;;;;;;4975775;28;20034;-74
2022/09/10 03:30:24;;;;;;;4.68;2.72;;;14.70;99.90;;;;;;4994004;28;20015;-75
2022/09/10 03:32:50;;;;;;;5.65;3.33;;;14.60;99.90;;;;;;4976301;28;20018;-73
2022/09/10 03:35:15;;;;;;;5.15;2.53;;;14.50;99.90;;;;;;4993957;28;20019;-72
2022/09/10 03:37:43;;;;;;;12.55;3.35;;;14.50;99.90;;;;;;4994038;28;20059;-75
2022/09/10 03:40:09;;;;;;;10.18;3.25;;;14.50;99.90;;;;;;4974743;28;20026;-74
2022/09/10 03:42:35;;;;;;;8.20;3.70;;;14.50;99.90;;;;;;4976322;28;20094;-72
2022/09/10 03:45:01;;;;;;;7.95;3.60;;;14.60;99.90;;;;;;4993072;28;20102;-72
2022/09/10 03:47:26;;;;;;;5.57;3.67;;;14.70;99.90;;;;;;4993426;28;20054;-77
2022/09/10 03:49:52;;;;;;;7.55;4.13;;;14.60;99.90;;;;;;4994105;28;20042;-72
2022/09/10 03:52:18;;;;;;;6.45;3.50;;;14.50;99.90;;;;;;4993710;28;20090;-72
2022/09/10 03:54:44;;;;;;;7.45;3.75;;;14.60;99.90;;;;;;4992470;28;20039;-74
2022/09/10 03:57:10;;;;;;;7.30;3.50;;;14.50;99.90;;;;;;4993860;28;20026;-73
2022/09/10 03:59:39;;;;;;;5.82;3.75;;;14.60;99.90;;;;;;4992161;28;20038;-75
2022/09/10 04:02:04;;;;;;;8.93;4.10;;;14.60;99.90;;;;;;4993176;28;20434;-76
2022/09/10 04:04:30;;;;;;;10.02;4.30;;;14.50;99.90;;;;;;4992989;28;20050;-73
2022/09/10 04:06:56;;;;;;;5.80;3.47;;;14.60;99.90;;;;;;4993634;28;20023;-73
2022/09/10 04:09:22;;;;;;;8.07;3.70;;;14.50;99.90;;;;;;4993199;28;20030;-74
2022/09/10 04:11:47;;;;;;;9.45;4.13;;;14.50;99.90;;;;;;4992604;28;20073;-72
2022/09/10 04:14:14;;;;;;;5.93;3.92;;;14.50;99.90;;;;;;4992091;28;20137;-74
2022/09/10 04:16:40;;;;;;;7.05;3.67;;;14.50;99.90;;;;;;4992707;28;20390;-73
2022/09/10 04:19:06;;;;;;;8.55;3.88;;;14.50;99.90;;;;;;4992862;28;20105;-73
2022/09/10 04:21:32;;;;;;;6.97;3.92;;;14.50;99.90;;;;;;4992264;28;20854;-73
2022/09/10 04:24:00;;;;;;;7.20;4.13;;;14.40;99.90;;;;;;4975365;28;20027;-77
2022/09/10 04:26:26;;;;;;;8.18;4.47;;;14.40;99.90;;;;;;4993047;28;20030;-74
2022/09/10 04:28:52;;;;;;;8.00;3.22;;;14.50;99.90;;;;;;4992483;28;20027;-74
2022/09/10 04:31:18;;;;;;;5.45;3.70;;;14.50;99.90;;;;;;4992030;28;20037;-74
2022/09/10 04:33:44;;;;;;;5.18;3.08;;;14.40;99.90;;;;;;4993100;28;20399;-73
2022/09/10 04:36:11;;;;;;;6.88;4.07;;;14.50;99.90;;;;;;4992685;28;20030;-74
2022/09/10 04:38:40;;;;;;;13.48;3.63;;;14.40;99.90;;;;;;4991180;28;20023;-73
2022/09/10 04:41:07;;;;;;;8.82;4.13;;;14.50;99.90;;;;;;4992256;28;20354;-74
2022/09/10 04:43:33;;;;;;;4.45;3.00;;;14.40;99.90;;;;;;4992590;28;20046;-74
2022/09/10 04:45:58;;;;;;;11.40;3.88;;;14.40;99.90;;;;;;4991709;28;20042;-72
2022/09/10 04:48:24;;;;;;;6.28;3.83;;;14.50;99.90;;;;;;4975325;28;20188;-73
2022/09/10 04:50:51;;;;;;;7.13;3.45;;;14.40;99.90;;;;;;4991517;28;20032;-74
2022/09/10 04:53:17;;;;;;;8.05;4.03;;;14.50;99.90;;;;;;4990330;28;20085;-76
2022/09/10 04:55:45;;;;;;;7.05;3.58;;;14.40;99.90;;;;;;4991385;28;20092;-76
2022/09/10 04:58:12;;;;;;;5.43;3.78;;;14.50;99.90;;;;;;4991955;28;20027;-76
2022/09/10 05:00:38;;;;;;;6.80;4.20;;;14.50;99.90;;;;;;4992783;28;20057;-75
2022/09/10 05:03:05;;;;;;;6.65;3.78;;;14.40;99.90;;;;;;4991560;28;20356;-75
2022/09/10 05:05:32;;;;;;;5.38;3.55;;;14.50;99.90;;;;;;4990159;28;20019;-76
2022/09/10 05:07:59;;;;;;;6.65;3.67;;;14.50;99.90;;;;;;4987534;28;20149;-75
2022/09/10 05:10:26;;;;;;;6.38;4.05;;;14.50;99.90;;;;;;4972623;28;20038;-75
2022/09/10 05:12:53;;;;;;;7.15;3.60;;;14.50;99.90;;;;;;4991467;28;20023;-74
2022/09/10 05:15:18;;;;;;;10.88;4.32;;;14.50;99.90;;;;;;4991077;28;20034;-75
2022/09/10 05:17:44;;;;;;;6.63;3.95;;;14.50;99.90;;;;;;4991243;28;20030;-75
2022/09/10 05:20:10;;;;;;;5.78;3.45;;;14.50;99.90;;;;;;4969109;28;20037;-77
2022/09/10 05:22:37;;;;;;;6.07;3.35;;;14.50;99.90;;;;;;4974251;28;20035;-75
2022/09/10 05:25:03;;;;;;;4.70;3.55;;;14.50;99.90;;;;;;4990453;28;20043;-76
2022/09/10 05:27:29;;;;;;;8.95;4.18;;;14.50;99.90;;;;;;4991337;28;20026;-77
2022/09/10 05:29:56;;;;;;;11.32;4.13;;;14.60;99.90;;;;;;4991224;28;20096;-75
2022/09/10 05:32:22;;;;;;;9.00;4.93;;;14.50;99.90;;;;;;4991409;28;20450;-75
2022/09/10 05:34:47;;;;;;;6.88;4.18;;;14.70;99.90;;;;;;4992442;28;20118;-75
2022/09/10 05:37:14;;;;;;;7.80;4.15;;;14.70;99.90;;;;;;4991861;28;20113;-75
2022/09/10 05:39:40;;;;;;;6.72;3.63;;;14.60;99.90;;;;;;4990129;28;20027;-74
2022/09/10 05:42:07;;;;;;;8.35;4.03;;;14.60;99.90;;;;;;4991845;28;20458;-76
2022/09/10 05:44:33;;;;;;;5.38;3.80;;;14.70;99.90;;;;;;4991301;28;20070;-76
2022/09/10 05:46:58;;;;;;;6.03;3.97;;;14.60;99.90;;;;;;4991730;28;20037;-75
2022/09/10 05:49:25;;;;;;;8.60;4.53;;;14.70;99.90;;;;;;4971441;28;20132;-76
2022/09/10 05:51:51;;;;;;;6.13;3.53;;;14.70;99.90;;;;;;4987420;28;20051;-75
2022/09/10 05:54:17;;;;;;;5.88;3.67;;;14.70;99.90;;;;;;4990504;28;20047;-75
2022/09/10 05:56:43;;;;;;;5.13;3.83;;;14.70;99.90;;;;;;4990183;28;20085;-77
2022/09/10 05:59:09;;;;;;;6.38;3.55;;;14.60;99.90;;;;;;4971939;28;20386;-76
2022/09/10 06:01:37;;;;;;;10.70;3.75;;;14.80;99.90;;;;;;4971847;28;20485;-77
2022/09/10 06:04:03;;;;;;;15.93;4.25;;;14.80;99.90;;;;;;4989393;28;20035;-76
2022/09/10 06:06:29;;;;;;;3.65;2.90;;;14.80;99.90;;;;;;4973747;28;20370;-75
2022/09/10 06:08:55;;;;;;;5.85;4.07;;;14.80;99.90;;;;;;4990657;28;20034;-76
2022/09/10 06:11:21;;;;;;;8.13;4.43;;;14.80;99.90;;;;;;4990068;28;20403;-76
2022/09/10 06:13:47;;;;;;;14.35;4.80;;;14.80;99.90;;;;;;4973046;28;20079;-75
2022/09/10 06:16:14;;;;;;;13.15;4.25;;;14.90;99.90;;;;;;4992036;28;20026;-76
2022/09/10 06:18:41;;;;;;;7.30;4.15;;;14.90;99.90;;;;;;4990499;28;20056;-77
2022/09/10 06:21:13;;;;;;;8.90;4.70;;;14.90;99.90;;;;;;4973175;28;20026;-75
2022/09/10 06:23:40;;;;;;;9.45;4.25;;;14.90;99.90;;;;;;4973967;28;20471;-74
2022/09/10 06:26:11;;;;;;;12.07;5.13;;;15.00;99.90;;;;;;4991353;28;20030;-76
2022/09/10 06:28:36;;;;;;;9.57;4.80;;;15.00;99.90;;;;;;4989728;28;20057;-75
2022/09/10 06:31:03;;;;;;;6.63;4.35;;;15.00;99.90;;;;;;4991396;28;20027;-74
2022/09/10 06:33:30;;;;;;;9.82;5.65;;;15.10;99.90;;;;;;4991008;28;20160;-77
2022/09/10 06:35:58;;;;;;;9.82;4.50;;;15.10;99.90;;;;;;4994170;28;20045;-75
2022/09/10 06:38:26;;;;;;;8.60;4.53;;;15.30;99.90;;;;;;4976660;28;20386;-76
2022/09/10 06:40:53;;;;;;;11.82;5.28;;;15.30;99.90;;;;;;4994789;28;20115;-75
2022/09/10 06:43:22;;;;;;;11.70;4.68;;;15.20;99.90;;;;;;4993656;28;20058;-74
2022/09/10 06:45:49;;;;;;;7.65;5.03;;;15.20;99.90;;;;;;4993666;28;20030;-75
2022/09/10 06:48:17;;;;;;;7.57;4.68;;;15.30;99.90;;;;;;4990882;28;20179;-75
2022/09/10 06:50:54;;;;;;;9.05;4.63;;;15.20;99.90;;;;;;4990429;28;20027;-75
2022/09/10 06:53:21;;;;;;;7.30;4.25;;;15.20;99.90;;;;;;4976574;28;20042;-74
2022/09/10 06:55:49;;;;;;;11.02;5.30;;;15.20;99.90;;;;;;4990820;28;20081;-75
2022/09/10 06:58:16;;;;;;;12.75;4.68;;;15.20;99.90;;;;;;4991068;28;20030;-76
2022/09/10 07:00:44;;;;;;;9.30;5.18;;;15.30;99.90;;;;;;4991177;28;20034;-74
2022/09/10 07:03:09;;;;;;;9.35;5.35;;;15.40;99.90;;;;;;4992137;28;20034;-76
2022/09/10 07:05:35;;;;;;;10.98;4.65;;;15.40;99.90;;;;;;4993428;28;20030;-75
2022/09/10 07:08:00;;;;;;;9.88;5.35;;;15.30;99.90;;;;;;4993883;28;20041;-74
2022/09/10 07:10:27;;;;;;;12.68;6.07;;;15.40;99.90;;;;;;4993052;28;20556;-75
2022/09/10 07:12:53;;;;;;;10.25;5.68;;;15.40;99.90;;;;;;4991053;28;20026;-75
2022/09/10 07:15:18;;;;;;;8.50;5.72;;;15.40;99.90;;;;;;4993838;28;20062;-74
2022/09/10 07:17:44;;;;;;;9.30;5.70;;;15.50;99.90;;;;;;4991466;28;20038;-76
2022/09/10 07:20:10;;;;;;;12.05;5.93;;;15.50;99.90;;;;;;4976447;28;20074;-75
2022/09/10 07:22:38;;;;;;;12.52;6.32;;;15.50;99.90;;;;;;4974524;28;20121;-76
2022/09/10 07:25:06;;;;;;;10.13;5.93;;;15.60;99.90;;;;;;4993735;28;20030;-75
2022/09/10 07:27:32;;;;;;;8.20;5.70;;;15.50;99.90;;;;;;4992880;28;20019;-74
2022/09/10 07:29:57;;;;;;;13.15;5.55;;;15.50;99.90;;;;;;4994386;28;20019;-75
2022/09/10 07:32:23;;;;;;;15.18;6.22;;;15.60;99.90;;;;;;4992936;28;20053;-75
2022/09/10 07:34:49;;;;;;;12.25;4.95;;;15.60;99.90;;;;;;4976570;28;20045;-75
2022/09/10 07:37:14;;;;;;;13.57;6.32;;;15.60;99.90;;;;;;4994062;28;20459;-75
2022/09/10 07:39:40;;;;;;;10.07;6.30;;;15.60;99.90;;;;;;4994005;28;20057;-76
2022/09/10 07:42:09;;;;;;;13.65;7.05;;;15.70;99.90;;;;;;4993490;28;20083;-75
2022/09/10 07:44:35;;;;;;;17.48;5.93;;;15.70;99.90;;;;;;4972585;28;20047;-75
2022/09/10 07:47:02;;;;;;;7.88;5.25;;;15.80;99.90;;;;;;4970286;28;20047;-74
2022/09/10 07:49:28;;;;;;;12.77;6.43;;;15.80;99.90;;;;;;4973426;28;20042;-75
2022/09/10 07:51:53;;;;;;;18.08;6.93;;;15.90;99.90;;;;;;4971957;28;20023;-75
2022/09/10 07:54:19;;;;;;;11.98;7.15;;;16.00;99.90;;;;;;4972559;28;20050;-74
2022/09/10 07:56:45;;;;;;;14.70;7.22;;;16.00;99.90;;;;;;4972323;28;20035;-75
2022/09/10 07:59:12;;;;;;;14.63;8.23;;;16.10;99.90;;;;;;4973836;28;20083;-74
2022/09/10 08:01:37;;;;;;;12.23;6.78;;;16.20;99.90;;;;;;4972264;28;20391;-75
2022/09/10 08:04:04;;;;;;;15.82;7.90;;;16.30;99.90;;;;;;4974078;28;20039;-74
2022/09/10 08:06:31;;;;;;;16.25;7.03;;;16.50;99.90;;;;;;4973077;28;20027;-74
2022/09/10 08:08:56;;;;;;;10.52;7.32;;;16.40;99.90;;;;;;4970568;28;20063;-75
2022/09/10 08:11:22;;;;;;;15.48;7.32;;;16.50;99.90;;;;;;4973428;28;20023;-75
2022/09/10 08:13:50;;;;;;;13.35;7.38;;;16.50;99.90;;;;;;4972362;28;20042;-74
2022/09/10 08:16:19;;;;;;;15.18;8.10;;;16.60;99.90;;;;;;4973424;28;20019;-73
2022/09/10 08:18:46;;;;;;;12.90;7.60;;;16.50;99.90;;;;;;4971576;28;20027;-75
2022/09/10 08:21:12;;;;;;;16.73;8.27;;;16.60;99.90;;;;;;4973650;28;20037;-74
2022/09/10 08:23:39;;;;;;;18.95;8.38;;;16.60;99.90;;;;;;4971082;28;20046;-74
2022/09/10 08:26:06;;;;;;;17.73;9.23;;;16.60;99.90;;;;;;4971460;28;20035;-73
2022/09/10 08:28:33;;;;;;;16.80;8.85;;;16.50;99.90;;;;;;4973560;28;20022;-73
2022/09/10 08:31:06;;;;;;;14.77;7.80;;;16.60;99.90;;;;;;4973845;28;20019;-73
2022/09/10 08:33:38;;;;;;;15.90;8.93;;;16.50;99.90;;;;;;4973902;28;20023;-74
2022/09/10 08:36:07;;;;;;;16.92;8.77;;;16.60;99.90;;;;;;4972667;28;20122;-74
2022/09/10 08:38:38;;;;;;;14.68;8.48;;;16.50;99.90;;;;;;4970375;28;20061;-74
2022/09/10 08:41:31;;;;;;;19.35;9.07;;;16.60;99.90;;;;;;4971026;28;20020;-74
2022/09/10 08:44:08;;;;;;;17.02;7.93;;;16.60;99.90;;;;;;4975283;28;20054;-72
2022/09/10 08:47:03;;;;;;;24.52;8.45;;;16.60;99.90;;;;;;4992608;28;20038;-74
2022/09/10 08:49:43;;;;;;;18.95;7.22;;;16.70;99.90;;;;;;4992428;28;20023;-74
2022/09/10 08:52:25;;;;;;;17.60;7.93;;;16.70;99.90;;;;;;4973866;28;20109;-73
2022/09/10 08:55:10;;;;;;;14.73;9.02;;;16.70;99.90;;;;;;4991510;28;20072;-72
2022/09/10 08:57:48;;;;;;;13.50;7.53;;;16.80;99.90;;;;;;4991676;28;20037;-74
2022/09/10 09:00:18;;;;;;;15.13;8.52;;;16.70;99.90;;;;;;4991150;28;20031;-73
2022/09/10 09:03:20;;;;;;;19.70;9.75;;;16.70;99.90;;;;;;4974815;28;20527;-73
2022/09/10 09:05:49;;;;;;;21.08;9.93;;;16.70;99.90;;;;;;4991087;28;20098;-74
2022/09/10 09:08:24;;;;;;;25.58;10.77;;;16.80;99.90;;;;;;4991634;28;20066;-73
2022/09/10 09:10:53;;;;;;;;;;;16.70;99.90;;;;;;4991979;28;20018;-73
2022/09/10 09:13:46;;;;;;;18.30;8.32;;;16.80;99.90;;;;;;4989636;28;19910;-73
2022/09/10 09:16:31;;;;;;;20.50;9.55;;;16.80;99.90;;;;;;4990280;28;20038;-72
2022/09/10 09:19:13;;;;;;;19.15;9.00;;;16.80;99.90;;;;;;4991396;28;20030;-71
2022/09/10 09:21:53;;;;;;;17.65;9.35;;;16.90;99.90;;;;;;4991169;28;20046;-72
2022/09/10 09:24:36;;;;;;;23.83;8.95;;;17.00;99.90;;;;;;4989815;28;20086;-74
2022/09/10 09:27:08;;;;;;;22.13;11.18;;;17.00;99.90;;;;;;4990121;28;20035;-73
2022/09/10 09:29:51;;;;;;;17.45;9.25;;;17.00;99.90;;;;;;4991402;28;20085;-73
2022/09/10 09:32:19;;;;;;;19.95;10.45;;;17.00;99.90;;;;;;4991875;28;20026;-72
2022/09/10 09:35:04;;;;;;;19.42;11.43;;;17.00;99.90;;;;;;4990478;28;20042;-75
2022/09/10 09:37:30;;;;;;;27.42;11.77;;;17.10;99.90;;;;;;4991721;28;20624;-72
2022/09/10 09:40:11;;;;;;;24.67;12.50;;;17.20;99.90;;;;;;4991762;28;20019;-73
2022/09/10 09:42:55;;;;;;;20.00;11.45;;;17.30;99.90;;;;;;4991906;28;20019;-74
2022/09/10 09:45:27;;;;;;;19.90;10.82;;;17.40;99.90;;;;;;4951562;29;20032;-72
2022/09/10 09:47:53;;;;;;;16.60;9.52;;;17.60;99.90;;;;;;4953425;29;20035;-73
2022/09/10 09:50:19;;;;;;;17.30;9.40;;;17.70;99.90;;;;;;4952969;29;20020;-73
2022/09/10 09:52:46;;;;;;;15.48;9.32;;;17.90;99.90;;;;;;4953594;29;20027;-74
2022/09/10 09:55:31;;;;;;;19.67;10.75;;;17.90;99.90;;;;;;4953587;29;20035;-74
2022/09/10 09:58:31;;;;;;;15.60;9.50;;;18.00;99.90;;;;;;4953049;28;20073;-72
2022/09/10 10:01:02;;;;;;;24.23;10.90;;;18.20;99.90;;;;;;4931158;29;20050;-73
2022/09/10 10:03:34;;;;;;;19.25;9.02;;;18.20;99.90;;;;;;4952784;29;20062;-74
2022/09/10 10:06:04;;;;;;;23.48;10.15;;;18.30;99.90;;;;;;4952556;29;20031;-73
2022/09/10 10:08:36;;;;;;;31.38;10.75;;;18.50;99.90;;;;;;4954467;29;20083;-73
2022/09/10 10:11:02;;;;;;;13.30;8.32;;;18.60;99.90;;;;;;4956115;29;20023;-73
2022/09/10 10:13:40;;;;;;;24.75;8.05;;;18.70;99.90;;;;;;4955062;29;20054;-74
2022/09/10 10:16:34;;;;;;;12.80;7.93;;;18.70;99.90;;;;;;4957182;29;20051;-73
2022/09/10 10:19:00;;;;;;;11.93;6.88;;;18.80;99.90;;;;;;4956961;29;20043;-73
2022/09/10 10:21:33;;;;;;;15.60;8.20;;;18.90;99.90;;;;;;4954988;29;20038;-74
2022/09/10 10:23:59;;;;;;;19.92;8.77;;;18.90;99.90;;;;;;4949735;29;20031;-74
2022/09/10 10:26:36;;;;;;;17.83;8.52;;;19.00;99.90;;;;;;4969614;28;20047;-74
2022/09/10 10:29:19;;;;;;;12.90;7.78;;;19.00;99.90;;;;;;4956911;29;20319;-73
2022/09/10 10:31:49;;;;;;;18.25;8.18;;;19.10;99.90;;;;;;4954808;29;20027;-74
2022/09/10 10:34:33;;;;;;;18.38;8.40;;;19.20;99.90;;;;;;4952941;29;20063;-74
2022/09/10 10:37:32;;;;;;;12.30;7.43;;;19.20;99.90;;;;;;4956525;28;20749;-74
2022/09/10 10:40:13;;;;;;;12.45;7.65;;;19.30;99.90;;;;;;4954951;29;20039;-73
2022/09/10 10:42:50;;;;;;;14.32;8.32;;;19.20;99.90;;;;;;4956388;29;20023;-74
2022/09/10 10:45:40;;;;;;;13.57;8.35;;;19.20;99.90;;;;;;4972312;28;20105;-75
2022/09/10 10:48:20;;;;;;;13.60;8.38;;;19.20;99.90;;;;;;4974454;28;20019;-74
2022/09/10 10:50:53;;;;;;;18.52;8.48;;;19.20;99.90;;;;;;4973938;28;20043;-74
2022/09/10 10:53:42;;;;;;;11.67;7.87;;;19.20;99.90;;;;;;4971462;28;20038;-74
2022/09/10 10:56:07;;;;;;;12.57;6.72;;;19.10;99.90;;;;;;4975086;28;20023;-75
2022/09/10 10:59:03;;;;;;;9.68;6.80;;;19.20;99.90;;;;;;4971704;28;20039;-74
2022/09/10 11:01:33;;;;;;;12.55;6.95;;;19.30;99.90;;;;;;4974745;28;20589;-73
2022/09/10 11:04:11;;;;;;;9.43;6.38;;;19.30;99.90;;;;;;4972840;28;20031;-72
2022/09/10 11:06:43;;;;;;;12.02;6.43;;;19.40;99.90;;;;;;4974585;28;20034;-74
2022/09/10 11:09:26;;;;;;;11.55;6.97;;;19.20;99.90;;;;;;4974595;28;20050;-73
2022/09/10 11:11:56;;;;;;;15.52;5.47;;;19.30;99.90;;;;;;4973591;28;20090;-73
2022/09/10 11:14:32;;;;;;;8.85;5.32;;;19.20;99.90;;;;;;4973978;28;20070;-73
2022/09/10 11:17:10;;;;;;;9.18;5.97;;;19.10;99.90;;;;;;4973935;28;20055;-73
2022/09/10 11:20:02;;;;;;;7.30;4.75;;;19.20;99.90;;;;;;4973321;28;20032;-73
2022/09/10 11:22:33;;;;;;;14.52;6.28;;;19.20;99.90;;;;;;4972694;28;20045;-72
2022/09/10 11:25:09;;;;;;;13.93;6.05;;;19.30;99.90;;;;;;4974086;28;20026;-75
2022/09/10 11:27:45;;;;;;;12.38;6.20;;;19.40;99.90;;;;;;4971950;28;20031;-75
2022/09/10 11:30:15;;;;;;;12.32;6.32;;;19.40;99.90;;;;;;4971595;28;20030;-73
2022/09/10 11:32:45;;;;;;;16.80;7.22;;;19.40;99.90;;;;;;4973344;28;20035;-75
2022/09/10 11:35:32;;;;;;;11.52;6.60;;;19.40;99.90;;;;;;4974077;28;20108;-74
2022/09/10 11:38:00;;;;;;;17.77;6.82;;;19.30;99.90;;;;;;4969960;28;20039;-73
2022/09/10 11:40:28;;;;;;;12.65;6.55;;;19.40;99.90;;;;;;4973618;28;20027;-75
2022/09/10 11:43:07;;;;;;;23.60;5.45;;;19.60;99.90;;;;;;4973048;28;20039;-74
2022/09/10 11:45:53;;;;;;;10.75;6.47;;;19.80;99.90;;;;;;4993974;28;20038;-73
2022/09/10 11:48:45;;;;;;;9.05;5.22;;;20.00;99.90;;;;;;4992160;28;20030;-73
2022/09/10 11:51:21;;;;;;;10.52;5.32;;;20.10;99.90;;;;;;4993569;28;20019;-72
2022/09/10 11:53:47;;;;;;;9.55;5.35;;;20.20;99.90;;;;;;4993049;28;20117;-73
2022/09/10 11:56:24;;;;;;;10.40;5.55;;;20.20;99.90;;;;;;4993294;28;20027;-75
2022/09/10 11:59:08;;;;;;;9.52;4.88;;;20.30;99.90;;;;;;4975394;28;20475;-74
2022/09/10 12:02:17;;;;;;;7.50;5.20;;;20.50;99.90;;;;;;4974812;28;20033;-74
2022/09/10 12:05:14;;;;;;;8.05;3.88;;;20.70;99.90;;;;;;4991807;28;20098;-71
2022/09/10 12:07:56;;;;;;;7.18;4.57;;;20.80;99.90;;;;;;4993341;28;20048;-75
2022/09/10 12:10:59;;;;;;;6.88;4.18;;;20.90;99.90;;;;;;4993051;28;20027;-72
2022/09/10 12:13:25;;;;;;;9.75;4.22;;;21.00;99.90;;;;;;4992557;28;20034;-71
2022/09/10 12:15:58;;;;;;;6.53;3.42;;;21.20;99.90;;;;;;4992844;28;20031;-71
2022/09/10 12:18:40;;;;;;;4.95;3.00;;;21.20;99.90;;;;;;4992129;28;20023;-71
2022/09/10 12:21:15;;;;;;;6.43;3.47;;;21.20;99.90;;;;;;4975128;28;20034;-72
2022/09/10 12:23:43;;;;;;;6.68;3.38;;;21.30;99.90;;;;;;4991489;28;20026;-73
2022/09/10 12:26:18;;;;;;;15.18;7.07;;;21.30;99.90;;;;;;4992107;28;20168;-72
2022/09/10 12:28:48;;;;;;;17.30;6.85;;;21.40;99.90;;;;;;4992664;28;20030;-72
2022/09/10 12:31:16;;;;;;;14.98;5.55;;;21.40;99.90;;;;;;4984912;28;20050;-71
2022/09/10 12:33:43;;;;;;;7.82;4.85;;;21.40;99.90;;;;;;4989878;28;20122;-72
2022/09/10 12:36:14;;;;;;;7.32;3.60;;;21.30;99.90;;;;;;4991136;28;20038;-72
2022/09/10 12:39:11;;;;;;;9.50;4.75;;;21.30;99.90;;;;;;4974397;28;20026;-72
2022/09/10 12:41:36;;;;;;;8.63;5.07;;;21.20;99.90;;;;;;4992296;28;20030;-72
2022/09/10 12:44:23;;;;;;;6.35;4.82;;;21.40;99.90;;;;;;4970260;28;20098;-72
2022/09/10 12:47:15;;;;;;;9.43;5.68;;;21.60;99.90;;;;;;4971428;28;20456;-72
2022/09/10 12:49:52;;;;;;;12.52;4.95;;;21.60;99.90;;;;;;4972534;28;20039;-74
2022/09/10 12:52:43;;;;;;;9.90;6.13;;;21.60;99.90;;;;;;4972169;28;20082;-72
2022/09/10 12:55:09;;;;;;;6.07;4.40;;;21.50;99.90;;;;;;4972019;28;20062;-72
2022/09/10 12:57:44;;;;;;;11.07;5.45;;;21.40;99.90;;;;;;4972063;28;20411;-71
2022/09/10 13:00:18;;;;;;;9.82;5.63;;;21.30;99.90;;;;;;4972805;28;20042;-71
2022/09/10 13:02:57;;;;;;;7.20;4.50;;;21.20;99.90;;;;;;4972727;28;20023;-70
2022/09/10 13:05:30;;;;;;;9.02;4.88;;;21.40;99.90;;;;;;4972618;28;20065;-72